createdAt,value
2023-01-22T00:00:18.322Z,101458.52
2023-01-22T00:02:49.282Z,101457.41
2023-01-22T00:05:18.892Z,101458.14
2023-01-22T00:07:50.295Z,101458.14
2023-01-22T00:10:19.672Z,101458.27
2023-01-22T00:12:50.630Z,101459.38
2023-01-22T00:15:21.808Z,101457.28
2023-01-22T00:17:53.427Z,101465.66
2023-01-22T00:20:22.480Z,101466.02
2023-01-22T00:22:52.351Z,101477.22
2023-01-22T00:25:23.842Z,101477.47
2023-01-22T00:27:53.787Z,101479.31
2023-01-22T00:30:22.807Z,101482.76
2023-01-22T00:32:53.851Z,101485.34
2023-01-22T00:35:24.169Z,101486.33
2023-01-22T00:37:56.226Z,101486.33
2023-01-22T00:40:25.649Z,101491.87
2023-01-22T00:42:54.770Z,101488.55
2023-01-22T00:45:24.089Z,101486.83
2023-01-22T00:47:53.670Z,101492.86
2023-01-22T00:50:22.878Z,101496.17
2023-01-22T00:52:51.845Z,101499.75
2023-01-22T00:55:21.259Z,101503.69
2023-01-22T00:57:50.245Z,101503.44
2023-01-22T01:00:20.595Z,101508.98
2023-01-22T04:50:36.651Z,101671.31
2023-01-22T04:53:05.897Z,101679.08
2023-01-22T04:55:34.902Z,101676.25
2023-01-22T04:58:07.459Z,101683.77
2023-01-22T05:00:37.827Z,101689.18
2023-01-22T05:03:07.319Z,101690.66
2023-01-22T05:05:35.946Z,101686.47
2023-01-22T05:08:05.520Z,101685.98
2023-01-22T05:10:35.989Z,101686.84
2023-01-22T05:13:07.950Z,101691.77
2023-01-22T05:15:37.479Z,101686.84
2023-01-22T05:18:09.936Z,101691.28
2023-01-22T05:20:40.318Z,101688.08
2023-01-22T05:23:10.645Z,101694.23
2023-01-22T05:25:39.646Z,101697.93
2023-01-22T05:28:08.645Z,101706.92
2023-01-22T05:30:42.136Z,101699.78
2023-01-22T05:33:29.996Z,101707.91
2023-01-22T05:36:00.923Z,101719.23
2023-01-22T05:38:31.569Z,101714.31
2023-01-22T05:41:01.124Z,101713.94
2023-01-22T05:43:33.232Z,101716.39
2023-01-22T05:46:05.049Z,101722.42
2023-01-22T05:48:52.748Z,101720.33
2023-01-22T05:51:26.872Z,101725.37
2023-01-22T05:53:56.301Z,101726.73
2023-01-22T05:56:28.047Z,101727.10
2023-01-22T05:58:57.792Z,101733.88
2023-01-22T06:01:27.193Z,101745.58
2023-01-22T06:03:56.488Z,101736.34
2023-01-22T06:06:27.370Z,101751.25
2023-01-22T06:08:57.054Z,101743.61
2023-01-22T06:11:27.249Z,101745.70
2023-01-22T06:13:56.377Z,101743.22
2023-01-22T06:16:26.294Z,101749.63
2023-01-22T06:19:05.959Z,101755.39
2023-01-22T06:21:46.079Z,101767.45
2023-01-22T06:24:15.796Z,101777.28
2023-01-22T06:26:44.575Z,101785.48
2023-01-22T06:29:14.919Z,101788.31
2023-01-22T06:31:44.234Z,101791.02
2023-01-22T06:34:18.980Z,101793.62
2023-01-22T06:36:47.735Z,101806.18
2023-01-22T06:39:17.645Z,101798.66
2023-01-22T06:41:48.370Z,101802.84
2023-01-22T06:44:19.143Z,101797.91
2023-01-22T06:46:48.142Z,101802.47
2023-01-22T06:49:18.873Z,101804.80
2023-01-22T06:51:47.750Z,101804.54
2023-01-22T06:54:17.685Z,101805.52
2023-01-22T06:56:46.928Z,101809.32
2023-01-22T06:59:16.001Z,101802.41
2023-01-22T07:01:45.685Z,101803.39
2023-01-22T07:04:17.063Z,101807.08
2023-01-22T07:06:46.782Z,101813.47
2023-01-22T07:09:16.338Z,101808.92
2023-01-22T07:11:45.171Z,101817.30
2023-01-22T07:14:14.864Z,101823.70
2023-01-22T07:16:43.938Z,101817.68
2023-01-22T07:19:14.868Z,101820.53
2023-01-22T07:21:44.146Z,101813.64
2023-01-22T07:24:14.849Z,101822.63
2023-01-22T07:26:45.169Z,101821.77
2023-01-22T07:29:13.688Z,101819.55
2023-01-22T07:31:43.044Z,101821.02
2023-01-22T07:34:12.224Z,101816.70
2023-01-22T07:36:41.080Z,101821.73
2023-01-22T07:39:09.705Z,101819.03
2023-01-22T07:41:38.421Z,101824.33
2023-01-22T07:44:10.266Z,101828.28
2023-01-22T07:46:40.479Z,101828.28
2023-01-22T07:49:10.291Z,101826.81
2023-01-22T07:51:38.875Z,101831.73
2023-01-22T07:54:07.880Z,101830.50
2023-01-22T07:56:37.749Z,101833.44
2023-01-22T07:59:08.307Z,101840.70
2023-01-22T08:01:38.478Z,101840.44
2023-01-22T08:04:08.169Z,101840.81
2023-01-22T08:06:37.683Z,101835.89
2023-01-22T08:09:07.021Z,101836.98
2023-01-22T08:11:35.816Z,101838.10
2023-01-22T08:14:05.013Z,101836.52
2023-01-22T08:16:35.414Z,101837.61
2023-01-22T08:19:04.584Z,101845.73
2023-01-22T08:21:34.907Z,101848.82
2023-01-22T08:24:05.283Z,101852.77
2023-01-22T08:26:34.056Z,101853.63
2023-01-22T08:29:06.049Z,101862.51
2023-01-22T08:31:34.365Z,101867.44
2023-01-22T08:34:03.230Z,101876.80
2023-01-22T08:36:32.721Z,101876.20
2023-01-22T08:39:03.923Z,101878.68
2023-01-22T08:41:33.130Z,101875.10
2023-01-22T08:44:02.721Z,101880.03
2023-01-22T08:46:35.313Z,101884.36
2023-01-22T08:49:07.695Z,101878.45
2023-01-22T08:51:38.738Z,101879.72
2023-01-22T08:54:08.662Z,101879.05
2023-01-22T08:56:40.393Z,101881.73
2023-01-22T08:59:08.962Z,101882.70
2023-01-22T09:01:37.670Z,101881.98
2023-01-22T09:04:07.714Z,101881.01
2023-01-22T09:06:37.779Z,101880.03
2023-01-22T09:09:07.063Z,101889.89
2023-01-22T09:11:37.280Z,101885.45
2023-01-22T09:14:07.424Z,101887.03
2023-01-22T09:16:36.093Z,101886.05
2023-01-22T09:19:06.160Z,101890.27
2023-01-22T09:21:36.410Z,101897.14
2023-01-22T09:24:06.108Z,101907.61
2023-01-22T09:26:36.453Z,101902.08
2023-01-22T09:29:05.719Z,101900.91
2023-01-22T09:31:35.386Z,101897.36
2023-01-22T09:34:04.328Z,101898.23
2023-01-22T09:36:33.416Z,101897.36
2023-01-22T09:39:02.038Z,101903.91
2023-01-22T09:41:41.220Z,101903.04
2023-01-22T09:44:40.097Z,101897.63
2023-01-22T09:47:13.564Z,101903.53
2023-01-22T09:50:05.149Z,101907.97
2023-01-22T09:52:36.842Z,101901.34
2023-01-22T09:55:14.599Z,101906.16
2023-01-22T09:57:48.481Z,101906.80
2023-01-22T10:00:39.781Z,101899.91
2023-01-22T10:03:16.406Z,101901.75
2023-01-22T10:05:53.191Z,101897.95
2023-01-22T13:13:36.376Z,101982.99
2023-01-22T13:16:24.468Z,101986.95
2023-01-22T13:18:56.675Z,101990.63
2023-01-22T13:21:31.439Z,101990.63
2023-01-22T13:24:06.897Z,101990.41
2023-01-22T13:26:37.285Z,101984.89
2023-01-22T13:29:28.805Z,101984.69
2023-01-22T13:32:01.572Z,101987.17
2023-01-22T13:34:31.438Z,101990.16
2023-01-22T13:37:00.885Z,101990.33
2023-01-22T13:39:33.009Z,101991.08
2023-01-22T13:42:04.769Z,101994.17
2023-01-22T13:44:39.768Z,101991.67
2023-01-22T13:47:11.035Z,101990.70
2023-01-22T13:49:43.542Z,102000.17
2023-01-22T13:52:16.879Z,102008.66
2023-01-22T13:54:56.399Z,102006.28
2023-01-22T13:57:26.482Z,102007.57
2023-01-22T14:00:00.385Z,102008.75
2023-01-22T14:02:34.433Z,102013.88
2023-01-22T14:05:05.399Z,102016.11
2023-01-22T14:07:37.650Z,102017.08
2023-01-22T14:10:22.772Z,102018.15
2023-01-22T14:13:06.748Z,102023.08
2023-01-22T14:15:37.024Z,102028.86
2023-01-22T14:18:17.280Z,102032.05
2023-01-22T14:20:47.315Z,102035.14
2023-01-22T14:23:17.613Z,102035.25
2023-01-22T14:25:51.165Z,102039.30
2023-01-22T14:28:21.566Z,102039.89
2023-01-22T14:30:50.646Z,102049.56
2023-01-22T14:33:24.891Z,102046.30
2023-01-22T14:35:54.316Z,102057.70
2023-01-22T14:38:23.255Z,102059.16
2023-01-22T14:40:52.962Z,102060.13
2023-01-22T14:43:23.490Z,102060.41
2023-01-22T14:45:53.512Z,102059.16
2023-01-22T14:48:22.875Z,102057.63
2023-01-22T14:50:52.542Z,102058.22
2023-01-22T14:53:22.555Z,102061.13
2023-01-22T14:55:52.255Z,102069.14
2023-01-22T14:58:22.935Z,102064.49
2023-01-22T15:00:52.287Z,102063.94
2023-01-22T15:03:21.452Z,102062.50
2023-01-22T15:05:52.751Z,102065.76
2023-01-22T15:08:22.613Z,102065.09
2023-01-22T15:10:52.178Z,102076.88
2023-01-22T15:13:22.076Z,102067.13
2023-01-22T15:15:52.826Z,102068.00
2023-01-22T15:18:21.973Z,102074.37
2023-01-22T15:20:50.950Z,102068.78
2023-01-22T15:23:20.882Z,102078.63
2023-01-22T15:26:00.456Z,102074.19
2023-01-22T15:28:30.919Z,102079.21
2023-01-22T15:31:06.759Z,102082.50
2023-01-22T15:33:37.451Z,102077.67
2023-01-22T15:36:09.012Z,102082.41
2023-01-22T15:38:38.326Z,102088.12
2023-01-22T15:41:27.508Z,102085.80
2023-01-22T15:44:00.106Z,102082.81
2023-01-22T15:46:32.851Z,102091.78
2023-01-22T15:49:02.787Z,102092.55
2023-01-22T15:51:32.295Z,102088.31
2023-01-22T15:54:03.266Z,102089.08
2023-01-22T15:56:36.320Z,102090.33
2023-01-22T15:59:05.554Z,102091.78
2023-01-22T16:01:35.934Z,102092.37
2023-01-22T16:04:06.631Z,102089.18
2023-01-22T16:06:36.848Z,102095.45
2023-01-22T16:09:08.556Z,102105.67
2023-01-22T16:11:37.336Z,102096.61
2023-01-22T16:14:07.374Z,102099.89
2023-01-22T16:16:37.775Z,102102.89
2023-01-22T16:19:08.768Z,102101.45
2023-01-22T16:21:38.107Z,102103.77
2023-01-22T16:24:07.861Z,102101.64
2023-01-22T16:26:39.059Z,102105.12
2023-01-22T16:29:08.966Z,102101.06
2023-01-22T16:31:38.967Z,102110.13
2023-01-22T16:34:15.930Z,102107.81
2023-01-22T16:36:45.506Z,102110.42
2023-01-22T16:39:21.343Z,102113.80
2023-01-22T16:41:51.354Z,102116.31
2023-01-22T16:44:27.686Z,102118.23
2023-01-22T16:46:59.212Z,102117.95
2023-01-22T16:49:34.144Z,102113.91
2023-01-22T16:52:21.402Z,102112.45
2023-01-22T16:54:39.121Z,102118.83
2023-01-22T16:57:10.008Z,102117.95
2023-01-22T16:59:42.568Z,102116.12
2023-01-22T17:02:15.690Z,102126.16
2023-01-22T17:04:46.536Z,102126.34
2023-01-22T17:07:31.896Z,102137.15
2023-01-22T17:09:47.862Z,102142.52
2023-01-22T17:12:17.557Z,102145.39
2023-01-22T17:14:51.300Z,102141.52
2023-01-22T17:17:21.426Z,102140.83
2023-01-22T17:19:51.826Z,102134.75
2023-01-22T17:22:24.172Z,102143.80
2023-01-22T17:24:54.505Z,102140.23
2023-01-22T17:27:26.000Z,102148.06
2023-01-22T17:29:55.496Z,102139.20
2023-01-22T17:32:26.499Z,102150.20
2023-01-22T17:34:56.502Z,102158.68
2023-01-22T17:37:26.370Z,102165.25
2023-01-22T17:39:55.664Z,102160.62
2023-01-22T17:42:24.599Z,102169.30
2023-01-22T17:44:53.834Z,102182.20
2023-01-22T17:47:22.775Z,102173.33
2023-01-22T17:49:52.790Z,102168.61
2023-01-22T17:52:23.483Z,102173.92
2023-01-22T17:54:55.669Z,102171.80
2023-01-22T17:57:26.102Z,102178.92
2023-01-22T17:59:56.355Z,102175.55
2023-01-22T18:02:26.966Z,102181.52
2023-01-22T18:04:56.990Z,102184.22
2023-01-22T18:07:27.205Z,102183.34
2023-01-22T18:09:56.576Z,102187.28
2023-01-22T18:12:25.727Z,102178.89
2023-01-22T18:14:55.205Z,102183.33
2023-01-22T18:17:25.014Z,102182.45
2023-01-22T18:19:54.744Z,102188.16
2023-01-22T18:22:24.722Z,102185.84
2023-01-22T18:24:54.330Z,102185.55
2023-01-22T18:27:23.867Z,102186.51
2023-01-22T18:29:54.605Z,102197.88
2023-01-22T18:32:26.812Z,102193.44
2023-01-22T18:35:04.389Z,102199.70
2023-01-22T18:37:34.015Z,102190.26
2023-01-22T18:40:04.533Z,102186.78
2023-01-22T18:42:34.809Z,102193.62
2023-01-22T18:45:05.286Z,102193.23
2023-01-22T18:47:37.102Z,102200.16
2023-01-22T18:50:08.606Z,102204.48
2023-01-22T18:52:38.637Z,102210.45
2023-01-22T18:55:09.269Z,102210.63
2023-01-22T18:57:50.202Z,102208.59
2023-01-22T19:00:22.824Z,102208.98
2023-01-22T19:02:56.125Z,102215.72
2023-01-22T19:05:25.941Z,102213.98
2023-01-22T19:07:56.123Z,102216.29
2023-01-22T19:10:27.495Z,102223.52
2023-01-22T19:12:57.097Z,102219.80
2023-01-22T19:15:27.371Z,102224.80
2023-01-22T19:17:56.422Z,102222.02
2023-01-22T19:20:25.694Z,102221.14
2023-01-22T19:22:55.707Z,102223.06
2023-01-22T19:25:25.131Z,102227.28
2023-01-22T19:27:55.657Z,102231.50
2023-01-22T19:30:25.760Z,102233.03
2023-01-22T19:32:55.818Z,102232.85
2023-01-22T19:35:25.299Z,102234.86
2023-01-22T19:37:57.115Z,102237.46
2023-01-22T19:40:30.886Z,102236.12
2023-01-22T19:43:02.217Z,102231.02
2023-01-22T19:45:32.525Z,102238.25
2023-01-22T19:48:05.337Z,102237.46
2023-01-22T19:50:34.579Z,102243.42
2023-01-22T19:53:03.342Z,102237.91
2023-01-22T19:55:37.536Z,102230.59
2023-01-22T19:58:07.128Z,102230.81
2023-01-22T20:00:36.636Z,102232.55
2023-01-22T20:03:08.088Z,102232.64
2023-01-22T20:05:41.191Z,102233.86
2023-01-22T20:08:11.497Z,102233.64
2023-01-22T20:10:40.507Z,102237.20
2023-01-22T20:13:10.901Z,102239.34
2023-01-22T20:15:41.377Z,102237.91
2023-01-22T20:18:10.820Z,102240.52
2023-01-22T20:20:39.987Z,102236.29
2023-01-22T20:25:45.006Z,102231.11
2023-01-22T20:28:15.675Z,102233.72
2023-01-22T20:30:46.424Z,102240.94
2023-01-22T20:33:15.938Z,102242.86
2023-01-22T20:35:45.797Z,102240.73
2023-01-22T20:38:16.815Z,102232.81
2023-01-22T20:40:47.503Z,102238.38
2023-01-22T20:43:17.789Z,102242.78
2023-01-22T20:46:02.611Z,102244.86
2023-01-22T20:48:31.961Z,102256.21
2023-01-22T20:51:01.524Z,102246.77
2023-01-22T20:53:30.696Z,102246.69
2023-01-22T20:56:02.819Z,102248.82
2023-01-22T20:58:32.188Z,102247.86
2023-01-22T21:01:10.668Z,102249.91
2023-01-22T21:03:39.850Z,102258.39
2023-01-22T21:06:13.578Z,102261.87
2023-01-22T21:08:42.573Z,102264.00
2023-01-22T21:11:13.440Z,102256.04
2023-01-22T21:13:42.800Z,102273.09
2023-01-22T21:16:16.859Z,102269.61
2023-01-22T21:18:46.510Z,102266.70
2023-01-22T21:21:18.789Z,102262.05
2023-01-22T21:23:48.447Z,102259.60
2023-01-22T21:26:25.606Z,102253.82
2023-01-22T21:29:02.166Z,102262.39
2023-01-22T21:31:32.801Z,102264.22
2023-01-22T21:34:04.162Z,102259.47
2023-01-22T21:36:47.993Z,102255.99
2023-01-22T21:39:23.905Z,102262.51
2023-01-22T21:41:54.920Z,102263.64
2023-01-22T21:44:42.431Z,102256.11
2023-01-22T21:47:11.595Z,102252.47
2023-01-22T21:49:42.309Z,102263.64
2023-01-22T21:52:11.834Z,102253.64
2023-01-22T21:54:41.873Z,102250.69
2023-01-22T21:57:14.457Z,102254.56
2023-01-22T21:59:46.487Z,102255.56
2023-01-22T22:02:18.642Z,102251.56
2023-01-22T22:04:48.611Z,102251.30
2023-01-22T22:07:18.126Z,102248.52
2023-01-22T22:09:47.593Z,102250.73
2023-01-22T22:12:20.362Z,102250.73
2023-01-22T22:14:52.507Z,102246.77
2023-01-22T22:17:21.813Z,102256.69
2023-01-22T22:19:50.871Z,102256.69
2023-01-22T22:22:19.950Z,102253.04
2023-01-22T22:24:51.126Z,102260.95
2023-01-22T22:27:21.948Z,102259.22
2023-01-22T22:29:54.269Z,102260.39
2023-01-22T22:32:23.606Z,102263.78
2023-01-22T22:34:54.300Z,102262.52
2023-01-22T22:37:24.409Z,102263.26
2023-01-22T22:39:53.427Z,102266.34
2023-01-22T22:42:22.374Z,102263.65
2023-01-22T22:46:05.660Z,102260.56
2023-01-22T22:49:13.097Z,102262.70
2023-01-22T22:51:59.778Z,102260.56
2023-01-22T22:54:28.604Z,102264.39
2023-01-22T22:56:57.336Z,102268.30
2023-01-22T22:59:26.897Z,102268.95
2023-01-22T23:01:56.632Z,102275.22
2023-01-22T23:04:25.952Z,102275.13
2023-01-22T23:06:55.735Z,102284.88
2023-01-22T23:09:24.700Z,102273.30
2023-01-22T23:11:55.906Z,102278.22
2023-01-22T23:14:24.979Z,102273.70
2023-01-22T23:16:53.734Z,102280.66
2023-01-22T23:19:25.918Z,102286.45
2023-01-22T23:22:00.277Z,102284.31
2023-01-22T23:24:29.541Z,102283.83
2023-01-22T23:26:58.455Z,102289.23
2023-01-22T23:29:29.128Z,102296.14
2023-01-22T23:31:58.494Z,102296.88
2023-01-22T23:34:27.495Z,102294.34
2023-01-22T23:36:56.591Z,102291.27
2023-01-22T23:39:26.075Z,102295.70
2023-01-22T23:41:55.718Z,102292.44
2023-01-22T23:44:26.304Z,102291.17
2023-01-22T23:46:55.344Z,102290.08
2023-01-22T23:49:25.234Z,102295.87
2023-01-22T23:51:54.539Z,102291.60
2023-01-22T23:54:25.375Z,102296.85
2023-01-22T23:56:55.079Z,102298.84
2023-01-22T23:59:24.021Z,102291.94
